createdAt,value
2023-05-05T00:02:29.368Z,96734.78
2023-05-05T00:05:00.958Z,96734.94
2023-05-05T00:07:36.037Z,96738.91
2023-05-05T00:10:07.872Z,96735.53
2023-05-05T00:12:39.561Z,96736.16
2023-05-05T00:15:11.302Z,96732.88
2023-05-05T00:17:42.936Z,96726.25
2023-05-05T00:20:14.969Z,96727.63
2023-05-05T00:22:46.501Z,96726.91
2023-05-05T00:25:18.132Z,96732.78
2023-05-05T00:27:49.762Z,96729.28
2023-05-05T00:30:21.716Z,96730.78
2023-05-05T00:32:54.781Z,96733.53
2023-05-05T00:35:27.292Z,96731.88
2023-05-05T00:37:59.581Z,96731.88
2023-05-05T00:40:33.963Z,96728.41
2023-05-05T00:43:05.604Z,96736.03
2023-05-05T00:45:39.107Z,96734.06
2023-05-05T00:48:11.153Z,96731.91
2023-05-05T00:50:43.974Z,96729.06
2023-05-05T00:53:15.805Z,96733.00
2023-05-05T00:55:47.475Z,96736.25
2023-05-05T00:58:19.043Z,96728.53
2023-05-05T01:00:50.669Z,96730.66
2023-05-05T01:03:22.340Z,96729.88
2023-05-05T01:06:15.658Z,96730.50
2023-05-05T01:09:08.950Z,96725.03
2023-05-05T01:11:57.945Z,96731.78
2023-05-05T01:15:03.288Z,96740.63
2023-05-05T01:17:58.800Z,96737.56
2023-05-05T01:20:49.493Z,96741.91
2023-05-05T01:23:50.391Z,96732.78
2023-05-05T01:27:00.506Z,96733.84
2023-05-05T01:30:03.401Z,96738.13
2023-05-05T01:32:43.700Z,96733.53
2023-05-05T01:35:20.727Z,96738.31
2023-05-05T01:38:05.720Z,96738.13
2023-05-05T01:41:12.343Z,96734.13
2023-05-05T01:43:48.507Z,96743.63
2023-05-05T01:46:23.761Z,96743.31
2023-05-05T01:48:56.982Z,96744.00
2023-05-05T01:51:29.504Z,96748.50
2023-05-05T01:54:05.682Z,96737.94
2023-05-05T01:56:41.818Z,96745.59
2023-05-05T01:59:13.901Z,96737.75
2023-05-05T02:01:48.701Z,96743.94
2023-05-05T02:04:22.907Z,96738.31
2023-05-05T02:06:56.441Z,96739.31
2023-05-05T02:09:34.305Z,96736.44
2023-05-05T02:12:08.188Z,96745.03
2023-05-05T02:14:42.485Z,96735.72
2023-05-05T02:17:17.033Z,96739.22
2023-05-05T02:19:52.519Z,96735.38
2023-05-05T02:22:24.360Z,96743.03
2023-05-05T02:24:59.069Z,96743.47
2023-05-05T02:27:33.980Z,96747.84
2023-05-05T02:30:11.145Z,96753.06
2023-05-05T02:32:56.666Z,96746.38
2023-05-05T02:35:41.033Z,96743.63
2023-05-05T02:38:18.622Z,96743.41
2023-05-05T02:40:59.287Z,96751.25
2023-05-05T02:43:31.989Z,96747.06
2023-05-05T02:46:03.606Z,96742.88
2023-05-05T02:48:43.124Z,96743.44
2023-05-05T02:51:14.739Z,96743.31
2023-05-05T02:53:46.600Z,96735.09
2023-05-05T02:56:49.027Z,96741.41
2023-05-05T03:00:07.377Z,96740.69
2023-05-05T03:03:03.095Z,96743.84
2023-05-05T03:05:45.895Z,96739.94
2023-05-05T03:08:28.232Z,96743.56
2023-05-05T03:11:06.510Z,96742.84
2023-05-05T03:13:44.187Z,96740.88
2023-05-05T03:16:18.942Z,96739.66
2023-05-05T03:18:52.480Z,96740.41
2023-05-05T03:21:24.646Z,96741.53
2023-05-05T03:23:58.273Z,96740.09
2023-05-05T03:26:29.815Z,96741.00
2023-05-05T03:29:01.401Z,96734.03
2023-05-05T03:31:33.513Z,96741.13
2023-05-05T03:34:06.134Z,96736.81
2023-05-05T03:36:38.822Z,96738.81
2023-05-05T03:39:10.785Z,96734.22
2023-05-05T03:41:42.470Z,96733.03
2023-05-05T03:44:14.100Z,96733.38
2023-05-05T03:46:45.766Z,96741.16
2023-05-05T03:49:17.323Z,96737.47
2023-05-05T03:51:48.973Z,96736.88
2023-05-05T03:54:20.593Z,96737.66
2023-05-05T03:56:52.253Z,96726.22
2023-05-05T03:59:23.764Z,96735.53
2023-05-05T04:01:55.418Z,96724.63
2023-05-05T04:04:27.134Z,96730.19
2023-05-05T04:06:58.717Z,96725.22
2023-05-05T04:09:30.384Z,96725.59
2023-05-05T04:12:03.110Z,96732.91
2023-05-05T04:14:34.748Z,96730.31
2023-05-05T04:17:06.505Z,96733.50
2023-05-05T04:19:40.214Z,96739.53
2023-05-05T04:22:13.900Z,96732.13
2023-05-05T04:24:45.604Z,96740.91
2023-05-05T04:27:17.239Z,96742.69
2023-05-05T04:29:48.932Z,96745.56
2023-05-05T04:32:20.842Z,96739.47
2023-05-05T04:34:52.738Z,96744.13
2023-05-05T04:37:25.657Z,96745.59
2023-05-05T04:39:57.262Z,96743.03
2023-05-05T04:42:28.965Z,96745.47
2023-05-05T04:45:04.357Z,96747.81
2023-05-05T04:47:40.622Z,96746.66
2023-05-05T04:50:12.478Z,96740.41
2023-05-05T04:52:44.073Z,96745.16
2023-05-05T04:55:15.731Z,96748.97
2023-05-05T04:57:47.337Z,96752.84
2023-05-05T05:00:19.112Z,96755.97
2023-05-05T05:02:50.745Z,96765.59
2023-05-05T05:05:22.668Z,96775.84
2023-05-05T05:07:54.322Z,96782.59
2023-05-05T05:10:25.920Z,96777.19
2023-05-05T05:12:57.533Z,96771.53
2023-05-05T05:15:29.086Z,96768.25
2023-05-05T05:18:00.807Z,96774.69
2023-05-05T05:20:32.398Z,96788.63
2023-05-05T05:23:04.610Z,96784.56
2023-05-05T05:25:36.181Z,96794.78
2023-05-05T05:28:10.768Z,96787.34
2023-05-05T05:30:42.587Z,96796.44
2023-05-05T05:33:14.524Z,96793.31
2023-05-05T05:35:46.470Z,96800.34
2023-05-05T05:38:18.102Z,96794.31
2023-05-05T05:40:49.720Z,96798.63
2023-05-05T05:43:21.332Z,96807.34
2023-05-05T05:45:53.000Z,96801.69
2023-05-05T05:48:28.413Z,96802.06
2023-05-05T05:51:00.202Z,96797.69
2023-05-05T05:53:31.982Z,96801.31
2023-05-05T05:56:04.244Z,96804.53
2023-05-05T05:58:35.820Z,96801.09
2023-05-05T06:01:07.422Z,96800.31
2023-05-05T06:03:39.021Z,96807.97
2023-05-05T06:06:12.984Z,96803.31
2023-05-05T06:08:44.652Z,96803.53
2023-05-05T06:11:16.208Z,96808.47
2023-05-05T06:13:47.834Z,96801.31
2023-05-05T06:16:19.376Z,96800.34
2023-05-05T06:18:51.025Z,96801.97
2023-05-05T06:21:22.664Z,96808.69
2023-05-05T06:23:54.260Z,96802.44
2023-05-05T06:26:28.444Z,96804.50
2023-05-05T06:29:00.065Z,96794.69
2023-05-05T06:31:31.723Z,96805.53
2023-05-05T06:34:03.616Z,96802.59
2023-05-05T06:36:35.757Z,96801.94
2023-05-05T06:39:07.749Z,96799.69
2023-05-05T06:41:39.339Z,96810.38
2023-05-05T06:44:11.409Z,96812.38
2023-05-05T06:46:43.789Z,96809.72
2023-05-05T06:49:15.518Z,96809.34
2023-05-05T06:51:47.081Z,96811.19
2023-05-05T06:54:18.699Z,96815.19
2023-05-05T06:56:50.320Z,96807.63
2023-05-05T06:59:24.222Z,96828.22
2023-05-05T07:01:59.574Z,96819.06
2023-05-05T07:04:31.657Z,96819.94
2023-05-05T07:07:03.308Z,96819.00
2023-05-05T07:09:34.923Z,96825.69
2023-05-05T07:12:14.714Z,96816.19
2023-05-05T07:14:47.001Z,96818.97
2023-05-05T07:17:18.810Z,96819.91
2023-05-05T07:19:51.401Z,96813.91
2023-05-05T07:22:22.962Z,96814.59
2023-05-05T07:24:54.568Z,96816.66
2023-05-05T07:27:26.562Z,96817.94
2023-05-05T07:29:58.498Z,96819.28
2023-05-05T07:32:30.117Z,96822.97
2023-05-05T07:35:01.802Z,96816.69
2023-05-05T07:37:33.479Z,96815.97
2023-05-05T07:40:06.401Z,96818.44
2023-05-05T07:42:38.238Z,96822.69
2023-05-05T07:45:10.318Z,96831.59
2023-05-05T07:47:41.902Z,96836.59
2023-05-05T07:50:13.674Z,96827.84
2023-05-05T07:52:49.874Z,96827.50
2023-05-05T07:55:27.886Z,96825.47
2023-05-05T07:57:59.443Z,96821.47
2023-05-05T08:00:31.010Z,96811.81
2023-05-05T08:03:02.617Z,96820.50
2023-05-05T08:05:34.272Z,96822.31
2023-05-05T08:08:06.994Z,96820.16
2023-05-05T08:10:38.675Z,96811.72
2023-05-05T08:13:10.288Z,96805.31
2023-05-05T08:15:41.950Z,96806.75
2023-05-05T08:18:14.692Z,96812.41
2023-05-05T08:20:46.570Z,96809.13
2023-05-05T08:23:18.103Z,96802.34
2023-05-05T08:25:49.875Z,96811.34
2023-05-05T08:28:21.404Z,96800.00
2023-05-05T08:30:53.044Z,96794.56
2023-05-05T08:33:25.205Z,96795.22
2023-05-05T08:35:56.924Z,96799.91
2023-05-05T08:38:30.891Z,96788.19
2023-05-05T08:41:02.817Z,96793.56
2023-05-05T08:43:35.938Z,96787.97
2023-05-05T08:46:12.273Z,96791.94
2023-05-05T08:48:45.974Z,96787.53
2023-05-05T08:51:19.805Z,96781.53
2023-05-05T08:53:54.245Z,96775.22
2023-05-05T08:56:31.138Z,96773.31
2023-05-05T08:59:02.964Z,96769.06
2023-05-05T09:01:36.135Z,96764.19
2023-05-05T09:04:16.632Z,96762.53
2023-05-05T09:06:48.273Z,96766.16
2023-05-05T09:09:20.611Z,96776.06
2023-05-05T09:11:53.738Z,96762.31
2023-05-05T09:14:25.590Z,96774.91
2023-05-05T09:16:59.243Z,96765.06
2023-05-05T09:19:30.943Z,96766.47
2023-05-05T09:22:02.518Z,96762.94
2023-05-05T09:25:10.150Z,96749.72
2023-05-05T09:27:49.391Z,96751.22
2023-05-05T09:30:26.115Z,96745.50
2023-05-05T09:32:57.725Z,96741.09
2023-05-05T09:35:47.287Z,96738.72
2023-05-05T09:38:20.816Z,96734.66
2023-05-05T09:40:54.105Z,96732.41
2023-05-05T09:43:25.687Z,96726.41
2023-05-05T09:46:08.185Z,96731.66
2023-05-05T09:48:43.081Z,96724.91
2023-05-05T09:51:14.915Z,96726.44
2023-05-05T09:53:46.521Z,96729.75
2023-05-05T09:56:23.431Z,96729.53
2023-05-05T09:59:09.423Z,96713.69
2023-05-05T10:01:43.414Z,96708.91
2023-05-05T10:04:28.561Z,96710.28
2023-05-05T10:07:00.327Z,96714.06
2023-05-05T10:09:32.733Z,96713.00
2023-05-05T10:12:06.028Z,96716.34
2023-05-05T10:14:37.800Z,96710.78
2023-05-05T10:17:10.189Z,96708.94
2023-05-05T10:19:42.726Z,96710.81
2023-05-05T10:22:14.679Z,96697.22
2023-05-05T10:25:01.732Z,96699.38
2023-05-05T10:27:43.660Z,96709.03
2023-05-05T10:30:24.481Z,96704.56
2023-05-05T10:33:30.105Z,96685.03
2023-05-05T10:36:05.361Z,96686.06
2023-05-05T10:38:38.142Z,96686.50
2023-05-05T10:41:11.564Z,96688.75
2023-05-05T10:43:46.377Z,96686.50
2023-05-05T10:46:18.342Z,96681.59
2023-05-05T10:49:04.312Z,96673.78
2023-05-05T10:52:30.820Z,96674.59
2023-05-05T10:55:16.205Z,96675.22
2023-05-05T10:57:53.567Z,96655.56
2023-05-05T11:00:40.485Z,96660.81
2023-05-05T11:03:18.397Z,96658.78
2023-05-05T11:06:07.931Z,96650.63
2023-05-05T11:08:44.264Z,96647.84
2023-05-05T11:11:16.194Z,96643.13
2023-05-05T11:14:07.762Z,96632.66
2023-05-05T11:16:48.229Z,96631.03
2023-05-05T11:19:46.091Z,96624.50
2023-05-05T11:22:17.803Z,96608.19
2023-05-05T11:24:49.362Z,96614.84
2023-05-05T11:27:21.128Z,96608.66
2023-05-05T11:30:04.667Z,96615.16
2023-05-05T11:32:36.443Z,96606.81
2023-05-05T11:35:08.175Z,96609.53
2023-05-05T11:37:39.988Z,96606.72
2023-05-05T11:40:42.816Z,96588.19
2023-05-05T11:43:20.681Z,96588.91
2023-05-05T11:46:19.560Z,96596.88
2023-05-05T11:48:53.035Z,96591.81
2023-05-05T11:51:25.422Z,96593.38
2023-05-05T11:53:58.501Z,96585.53
2023-05-05T11:56:30.782Z,96583.06
2023-05-05T11:59:20.543Z,96587.47
2023-05-05T12:01:52.796Z,96576.47
2023-05-05T12:04:24.636Z,96570.53
2023-05-05T12:06:58.507Z,96584.00
2023-05-05T12:09:30.143Z,96583.13
2023-05-05T12:12:02.730Z,96583.06
2023-05-05T12:14:34.533Z,96571.97
2023-05-05T12:17:12.647Z,96574.69
2023-05-05T12:19:53.396Z,96576.50
2023-05-05T12:22:26.788Z,96573.25
2023-05-05T12:25:01.568Z,96569.56
2023-05-05T12:27:36.476Z,96578.16
2023-05-05T12:30:19.588Z,96573.28
2023-05-05T12:33:03.108Z,96565.25
2023-05-05T12:35:35.196Z,96563.44
2023-05-05T12:38:07.242Z,96577.09
2023-05-05T12:40:49.712Z,96574.84
2023-05-05T12:43:31.919Z,96569.03
2023-05-05T12:46:12.031Z,96566.41
2023-05-05T12:48:46.398Z,96558.28
2023-05-05T12:51:23.067Z,96554.53
2023-05-05T12:54:12.041Z,96543.50
2023-05-05T12:56:47.159Z,96539.38
2023-05-05T12:59:21.834Z,96535.28
2023-05-05T13:01:54.879Z,96527.31
2023-05-05T13:04:28.522Z,96524.78
2023-05-05T13:07:15.017Z,96524.56
2023-05-05T13:09:50.652Z,96526.44
2023-05-05T13:12:25.326Z,96517.38
2023-05-05T13:14:56.990Z,96520.16
2023-05-05T13:17:28.726Z,96513.28
2023-05-05T13:20:02.363Z,96508.19
2023-05-05T13:22:33.925Z,96498.00
2023-05-05T13:25:06.145Z,96494.59
2023-05-05T13:27:37.886Z,96499.97
2023-05-05T13:30:10.399Z,96492.84
2023-05-05T13:32:42.286Z,96485.34
2023-05-05T13:35:16.008Z,96480.41
2023-05-05T13:37:48.538Z,96482.81
2023-05-05T13:40:20.087Z,96479.47
2023-05-05T13:42:51.784Z,96466.00
2023-05-05T13:45:23.302Z,96464.03
2023-05-05T13:47:54.893Z,96451.75
2023-05-05T13:50:26.563Z,96450.50
2023-05-05T13:52:58.142Z,96440.22
2023-05-05T13:55:30.027Z,96435.50
2023-05-05T13:58:01.636Z,96432.06
2023-05-05T14:00:34.649Z,96426.22
2023-05-05T14:03:06.322Z,96433.09
2023-05-05T14:05:44.587Z,96429.28
2023-05-05T14:08:16.516Z,96427.13
2023-05-05T14:10:49.541Z,96425.06
2023-05-05T14:13:23.019Z,96428.53
2023-05-05T14:15:54.631Z,96424.19
2023-05-05T14:18:26.285Z,96438.38
2023-05-05T14:20:57.907Z,96432.63
2023-05-05T14:23:32.644Z,96428.56
2023-05-05T14:26:04.262Z,96420.13
2023-05-05T14:28:35.953Z,96421.38
2023-05-05T14:31:07.653Z,96407.78
2023-05-05T14:33:39.321Z,96401.03
2023-05-05T14:36:11.125Z,96394.53
2023-05-05T14:38:43.020Z,96386.91
2023-05-05T14:41:14.806Z,96386.28
2023-05-05T14:43:46.337Z,96385.56
2023-05-05T14:46:21.170Z,96380.50
2023-05-05T14:48:55.857Z,96371.22
2023-05-05T14:51:27.701Z,96371.31
2023-05-05T14:53:59.529Z,96371.47
2023-05-05T14:56:31.155Z,96359.06
2023-05-05T14:59:02.706Z,96351.09
2023-05-05T15:01:34.374Z,96351.13
2023-05-05T15:04:06.331Z,96346.72
2023-05-05T15:06:37.990Z,96355.03
2023-05-05T15:09:09.628Z,96359.59
2023-05-05T15:11:41.418Z,96359.41
2023-05-05T15:14:15.398Z,96366.72
2023-05-05T15:16:47.013Z,96360.09
2023-05-05T15:19:18.596Z,96357.09
2023-05-05T15:21:53.271Z,96359.03
2023-05-05T15:24:24.935Z,96362.06
2023-05-05T15:26:57.532Z,96368.66
2023-05-05T15:29:29.132Z,96365.22
2023-05-05T15:32:01.158Z,96363.06
2023-05-05T15:34:32.863Z,96368.19
2023-05-05T15:37:04.717Z,96367.47
2023-05-05T15:39:36.657Z,96373.38
2023-05-05T15:42:08.303Z,96364.75
2023-05-05T15:44:39.908Z,96368.72
2023-05-05T15:47:11.536Z,96362.22
2023-05-05T15:49:43.233Z,96371.69
2023-05-05T15:52:14.956Z,96375.66
2023-05-05T15:54:46.542Z,96376.13
2023-05-05T15:57:18.256Z,96385.53
2023-05-05T15:59:53.672Z,96381.91
2023-05-05T16:02:25.598Z,96396.00
2023-05-05T16:04:57.240Z,96393.53
2023-05-05T16:07:28.968Z,96392.72
2023-05-05T16:10:00.631Z,96404.63
2023-05-05T16:12:32.295Z,96409.59
2023-05-05T16:15:04.346Z,96412.56
2023-05-05T16:17:39.525Z,96407.81
2023-05-05T16:20:11.761Z,96406.78
2023-05-05T16:22:43.366Z,96411.00
2023-05-05T16:25:18.312Z,96407.25
2023-05-05T16:27:52.254Z,96428.50
2023-05-05T16:30:24.047Z,96438.53
2023-05-05T16:32:55.707Z,96457.13
2023-05-05T16:35:27.475Z,96479.06
2023-05-05T16:38:01.988Z,96497.56
2023-05-05T16:40:36.346Z,96495.56
2023-05-05T16:43:08.080Z,96528.22
2023-05-05T16:45:39.631Z,96538.44
2023-05-05T16:48:11.450Z,96561.84
2023-05-05T16:50:47.218Z,96561.56
2023-05-05T16:53:18.926Z,96576.16
2023-05-05T16:55:54.814Z,96573.50
2023-05-05T16:58:26.859Z,96569.88
2023-05-05T17:00:58.523Z,96550.69
2023-05-05T17:03:30.398Z,96554.91
2023-05-05T17:06:02.080Z,96530.78
2023-05-05T17:08:34.316Z,96542.00
2023-05-05T17:11:10.985Z,96545.13
2023-05-05T17:13:46.130Z,96570.63
2023-05-05T17:16:18.568Z,96569.31
2023-05-05T17:18:50.142Z,96589.81
2023-05-05T17:21:22.576Z,96618.16
2023-05-05T17:23:54.183Z,96616.38
2023-05-05T17:26:25.956Z,96623.28
2023-05-05T17:28:57.576Z,96618.66
2023-05-05T17:31:29.216Z,96615.66
2023-05-05T17:34:00.946Z,96623.44
2023-05-05T17:36:33.550Z,96618.13
2023-05-05T17:39:05.964Z,96625.44
2023-05-05T17:41:40.129Z,96639.78
2023-05-05T17:44:11.842Z,96631.50
2023-05-05T17:46:43.690Z,96638.06
2023-05-05T17:49:15.427Z,96650.63
2023-05-05T17:51:47.182Z,96641.56
2023-05-05T17:54:19.060Z,96645.94
2023-05-05T17:56:50.685Z,96646.13
2023-05-05T17:59:26.072Z,96649.94
2023-05-05T18:01:57.704Z,96648.75
2023-05-05T18:04:31.491Z,96646.53
2023-05-05T18:07:06.359Z,96655.22
2023-05-05T18:09:39.582Z,96655.94
2023-05-05T18:12:11.292Z,96657.78
2023-05-05T18:14:43.153Z,96653.63
2023-05-05T18:17:14.795Z,96649.78
2023-05-05T18:19:49.106Z,96647.09
2023-05-05T18:22:21.883Z,96652.97
2023-05-05T18:24:58.934Z,96649.50
2023-05-05T18:27:32.703Z,96645.13
2023-05-05T18:30:05.307Z,96645.69
2023-05-05T18:32:37.490Z,96644.91
2023-05-05T18:35:10.060Z,96648.91
2023-05-05T18:37:42.287Z,96649.47
2023-05-05T18:40:14.164Z,96643.28
2023-05-05T18:42:45.788Z,96644.75
2023-05-05T18:45:17.537Z,96654.59
2023-05-05T18:47:49.266Z,96660.66
2023-05-05T18:50:20.928Z,96660.31
2023-05-05T18:52:52.616Z,96655.63
2023-05-05T18:55:24.312Z,96661.53
2023-05-05T18:57:55.945Z,96669.94
2023-05-05T19:00:27.604Z,96680.06
2023-05-05T19:02:59.348Z,96686.16
2023-05-05T19:05:34.061Z,96674.81
2023-05-05T19:08:05.840Z,96689.97
2023-05-05T19:10:40.672Z,96690.09
2023-05-05T19:13:12.880Z,96689.91
2023-05-05T19:15:48.301Z,96690.75
2023-05-05T19:18:24.704Z,96694.88
2023-05-05T19:20:56.415Z,96692.53
2023-05-05T19:23:32.005Z,96699.09
2023-05-05T19:26:04.517Z,96696.88
2023-05-05T19:28:36.189Z,96700.22
2023-05-05T19:31:07.745Z,96699.84
2023-05-05T19:33:42.348Z,96712.78
2023-05-05T19:36:14.063Z,96704.69
2023-05-05T19:38:46.725Z,96707.03
2023-05-05T19:41:18.522Z,96701.41
2023-05-05T19:43:50.110Z,96704.38
2023-05-05T19:46:23.773Z,96717.25
2023-05-05T19:48:58.155Z,96720.94
2023-05-05T19:51:30.044Z,96725.53
2023-05-05T19:54:01.674Z,96726.91
2023-05-05T19:56:33.343Z,96737.84
2023-05-05T19:59:06.344Z,96738.41
2023-05-05T20:01:41.436Z,96731.03
2023-05-05T20:04:16.027Z,96737.72
2023-05-05T20:06:47.618Z,96736.78
2023-05-05T20:09:19.267Z,96735.63
2023-05-05T20:11:53.558Z,96730.59
2023-05-05T20:14:25.617Z,96725.41
2023-05-05T20:16:57.183Z,96725.66
2023-05-05T20:19:28.879Z,96729.06
2023-05-05T20:22:02.545Z,96725.19
2023-05-05T20:24:34.195Z,96724.31
2023-05-05T20:27:06.979Z,96728.06
2023-05-05T20:29:38.574Z,96740.63
2023-05-05T20:32:10.243Z,96733.63
2023-05-05T20:34:41.785Z,96735.09
2023-05-05T20:37:14.003Z,96729.28
2023-05-05T20:39:47.308Z,96734.56
2023-05-05T20:42:19.811Z,96739.06
2023-05-05T20:44:51.437Z,96729.19
2023-05-05T20:47:23.056Z,96729.91
2023-05-05T20:49:54.709Z,96730.63
2023-05-05T20:52:26.272Z,96733.47
2023-05-05T20:54:57.944Z,96730.94
2023-05-05T20:57:29.558Z,96734.44
2023-05-05T21:00:01.196Z,96738.91
2023-05-05T21:02:32.857Z,96743.19
2023-05-05T21:05:08.089Z,96738.69
2023-05-05T21:07:39.945Z,96732.47
2023-05-05T21:10:11.883Z,96731.56
2023-05-05T21:12:43.692Z,96724.63
2023-05-05T21:15:16.692Z,96738.00
2023-05-05T21:17:48.512Z,96733.63
2023-05-05T21:20:20.334Z,96720.47
2023-05-05T21:22:51.935Z,96727.19
2023-05-05T21:25:24.273Z,96726.72
2023-05-05T21:27:56.271Z,96721.13
2023-05-05T21:30:28.081Z,96729.31
2023-05-05T21:33:00.152Z,96729.25
2023-05-05T21:35:31.901Z,96723.09
2023-05-05T21:38:03.635Z,96715.69
2023-05-05T21:40:35.367Z,96726.38
2023-05-05T21:43:07.006Z,96722.69
2023-05-05T21:45:39.157Z,96726.66
2023-05-05T21:48:10.796Z,96730.56
2023-05-05T21:50:43.051Z,96712.88
2023-05-05T21:53:14.701Z,96721.25
2023-05-05T21:55:46.471Z,96720.16
2023-05-05T21:58:18.034Z,96726.03
2023-05-05T22:00:50.133Z,96726.69
2023-05-05T22:03:21.765Z,96718.84
2023-05-05T22:05:53.464Z,96717.84
2023-05-05T22:08:25.087Z,96718.06
2023-05-05T22:10:56.709Z,96717.75
2023-05-05T22:13:28.304Z,96710.38
2023-05-05T22:15:59.990Z,96708.97
2023-05-05T22:18:35.685Z,96713.00
2023-05-05T22:21:07.342Z,96719.28
2023-05-05T22:23:41.477Z,96713.84
2023-05-05T22:26:13.119Z,96715.47
2023-05-05T22:28:44.713Z,96720.56
2023-05-05T22:31:16.802Z,96713.03
2023-05-05T22:33:48.468Z,96709.97
2023-05-05T22:36:20.148Z,96709.94
2023-05-05T22:38:54.592Z,96716.97
2023-05-05T22:41:26.293Z,96702.38
2023-05-05T22:43:58.001Z,96705.00
2023-05-05T22:46:29.840Z,96704.38
2023-05-05T22:49:04.701Z,96704.81
2023-05-05T22:51:36.363Z,96698.09
2023-05-05T22:54:08.004Z,96701.53
2023-05-05T22:56:42.821Z,96703.75
2023-05-05T22:59:14.604Z,96698.81
2023-05-05T23:01:46.395Z,96695.16
2023-05-05T23:04:18.244Z,96698.91
2023-05-05T23:06:49.919Z,96692.22
2023-05-05T23:09:21.607Z,96687.00
2023-05-05T23:11:53.324Z,96697.28
2023-05-05T23:14:24.930Z,96685.38
2023-05-05T23:16:59.602Z,96698.91
2023-05-05T23:19:32.622Z,96688.63
2023-05-05T23:22:07.004Z,96687.66
2023-05-05T23:24:38.616Z,96686.00
2023-05-05T23:27:10.253Z,96679.16
2023-05-05T23:29:44.996Z,96680.28
2023-05-05T23:32:16.572Z,96672.63
2023-05-05T23:34:51.043Z,96676.44
2023-05-05T23:37:23.034Z,96687.00
2023-05-05T23:39:54.705Z,96678.41
2023-05-05T23:42:29.243Z,96683.75
2023-05-05T23:45:03.286Z,96682.78
2023-05-05T23:47:36.834Z,96677.19
2023-05-05T23:50:09.316Z,96677.63
2023-05-05T23:52:41.845Z,96676.88
2023-05-05T23:55:14.408Z,96679.97
2023-05-05T23:57:45.988Z,96666.81
